Time;durP1;ratioP1;P1;durP2;ratioP2;P2;SDS_P1;SDS_P2;PMS_P1;PMS_P2;Temp;Humidity;BMP_temperature;BMP_pressure;BME280_temperature;BME280_humidity;BME280_pressure;Samples;Min_cycle;Max_cycle;Signal;HPM_P1;HPM_P2
2023/06/06 00:00:30;;;;;;;;;;;20.10;99.90;;;;;;5096993;28;20410;-63
2023/06/06 00:02:56;;;;;;;;;;;20.10;99.90;;;;;;5097207;28;19985;-61
2023/06/06 00:05:25;;;;;;;;;;;20.00;99.90;;;;;;5097171;28;20016;-62
2023/06/06 00:07:51;;;;;;;;;;;19.90;99.90;;;;;;5097162;28;20072;-62
2023/06/06 00:10:17;;;;;;;;;;;19.80;99.90;;;;;;5097340;28;19989;-62
2023/06/06 00:12:46;;;;;;;;;;;19.80;99.90;;;;;;5097065;28;19988;-64
2023/06/06 00:15:13;;;;;;;;;;;19.90;99.90;;;;;;5097262;28;20008;-64
2023/06/06 00:17:44;;;;;;;;;;;19.90;99.90;;;;;;5095572;28;20013;-61
2023/06/06 00:20:11;;;;;;;;;;;19.80;99.90;;;;;;5096722;28;19988;-62
2023/06/06 00:22:37;;;;;;;;;;;19.70;99.90;;;;;;5096853;28;19985;-63
2023/06/06 00:25:04;;;;;;;;;;;19.60;99.90;;;;;;5097030;28;19992;-61
2023/06/06 00:27:29;;;;;;;;;;;19.50;99.90;;;;;;5096793;28;20028;-61
2023/06/06 00:29:55;;;;;;;;;;;19.50;99.90;;;;;;5096679;28;20023;-62
2023/06/06 00:32:21;;;;;;;;;;;19.60;99.90;;;;;;5096627;28;20352;-64
2023/06/06 00:34:46;;;;;;;;;;;19.50;99.90;;;;;;5096383;28;20351;-61
2023/06/06 00:37:12;;;;;;;;;;;19.60;99.90;;;;;;5096525;28;20012;-62
2023/06/06 00:39:37;;;;;;;;;;;19.70;99.90;;;;;;5096457;28;20114;-63
2023/06/06 00:42:03;;;;;;;;;;;19.70;99.90;;;;;;5096634;28;19991;-61
2023/06/06 00:44:28;;;;;;;;;;;19.80;99.90;;;;;;5095771;28;20000;-63
2023/06/06 00:46:54;;;;;;;;;;;19.90;99.90;;;;;;5096016;28;20000;-63
2023/06/06 00:49:20;;;;;;;;;;;19.90;99.90;;;;;;5096308;28;19987;-61
2023/06/06 00:51:46;;;;;;;;;;;19.90;99.90;;;;;;5096384;28;19981;-60
2023/06/06 00:54:13;;;;;;;;;;;19.90;99.90;;;;;;5096275;28;19988;-63
2023/06/06 00:56:39;;;;;;;;;;;20.00;99.90;;;;;;5096274;28;20009;-65
2023/06/06 00:59:05;;;;;;;;;;;20.00;99.90;;;;;;5096390;28;20332;-64
2023/06/06 01:01:33;;;;;;;;;;;20.00;99.90;;;;;;5095745;28;20548;-64
2023/06/06 01:04:07;;;;;;;;;;;20.00;99.90;;;;;;5096070;28;20080;-64
2023/06/06 01:06:34;;;;;;;;;;;20.00;99.90;;;;;;5096013;28;19985;-65
2023/06/06 01:09:07;;;;;;;;;;;20.00;99.90;;;;;;5095982;28;19987;-61
2023/06/06 01:11:53;;;;;;;;;;;19.90;99.90;;;;;;5096064;28;20350;-64
2023/06/06 01:14:26;;;;;;;;;;;19.80;99.90;;;;;;5074303;28;19985;-60
2023/06/06 01:16:52;;;;;;;;;;;19.80;99.90;;;;;;5095841;28;20088;-63
2023/06/06 01:19:19;;;;;;;;;;;19.80;99.90;;;;;;5095844;28;19985;-63
2023/06/06 01:21:46;;;;;;;;;;;19.90;99.90;;;;;;5095635;28;19989;-62
2023/06/06 01:24:12;;;;;;;;;;;19.90;99.90;;;;;;5095682;28;20348;-60
2023/06/06 01:26:37;;;;;;;;;;;19.90;99.90;;;;;;5095637;28;19981;-62
2023/06/06 01:29:03;;;;;;;;;;;19.90;99.90;;;;;;5095492;28;19988;-60
2023/06/06 01:31:42;;;;;;;;;;;19.90;99.90;;;;;;5095433;28;19989;-62
2023/06/06 01:34:11;;;;;;;;;;;19.90;99.90;;;;;;5095427;28;19985;-64
2023/06/06 01:36:54;;;;;;;;;;;19.90;99.90;;;;;;5095318;28;20044;-62
2023/06/06 01:39:22;;;;;;;;;;;19.90;99.90;;;;;;5095456;28;20079;-64
2023/06/06 01:41:51;;;;;;;;;;;19.90;99.90;;;;;;5095226;28;19988;-63
2023/06/06 01:44:18;;;;;;;;;;;19.80;99.90;;;;;;5095609;28;19985;-61
2023/06/06 01:46:43;;;;;;;;;;;19.80;99.90;;;;;;5095091;28;19995;-62
2023/06/06 01:49:10;;;;;;;;;;;19.90;99.90;;;;;;5095085;28;19981;-63
2023/06/06 01:51:36;;;;;;;;;;;19.90;99.90;;;;;;5095149;28;20027;-63
2023/06/06 01:54:02;;;;;;;;;;;19.80;99.90;;;;;;5095378;28;20436;-62
2023/06/06 01:56:28;;;;;;;;;;;19.70;99.90;;;;;;5094417;28;20060;-63
2023/06/06 01:58:53;;;;;;;;;;;19.60;99.90;;;;;;5095059;28;19987;-62
2023/06/06 02:01:20;;;;;;;;;;;19.50;99.90;;;;;;5094552;28;20017;-65
2023/06/06 02:03:46;;;;;;;;;;;19.40;99.90;;;;;;5094852;28;20079;-61
2023/06/06 02:06:11;;;;;;;;;;;19.40;99.90;;;;;;5094785;28;20038;-65
2023/06/06 02:08:37;;;;;;;;;;;19.40;99.90;;;;;;5094827;28;19989;-63
2023/06/06 02:11:02;;;;;;;;;;;19.30;99.90;;;;;;5094904;28;19992;-62
2023/06/06 02:13:28;;;;;;;;;;;19.20;99.90;;;;;;5094875;28;20532;-61
2023/06/06 02:15:55;;;;;;;;;;;19.10;99.90;;;;;;5094507;28;20148;-64
2023/06/06 02:18:20;;;;;;;;;;;19.10;99.90;;;;;;5094856;28;20055;-63
2023/06/06 02:20:46;;;;;;;;;;;19.00;99.90;;;;;;5094805;28;20386;-63
2023/06/06 02:23:11;;;;;;;;;;;19.00;99.90;;;;;;5094813;28;20016;-64
2023/06/06 02:25:40;;;;;;;;;;;19.00;99.90;;;;;;5094461;28;19992;-64
2023/06/06 02:28:07;;;;;;;;;;;19.10;99.90;;;;;;5094431;28;20115;-65
2023/06/06 02:30:33;;;;;;;;;;;19.10;99.90;;;;;;5094301;28;19989;-63
2023/06/06 02:32:59;;;;;;;;;;;19.00;99.90;;;;;;5094462;28;19981;-63
2023/06/06 02:35:24;;;;;;;;;;;18.90;99.90;;;;;;5094243;28;20060;-63
2023/06/06 02:37:50;;;;;;;;;;;19.00;99.90;;;;;;5094586;28;20524;-64
2023/06/06 02:40:16;;;;;;;;;;;19.00;99.90;;;;;;5094229;28;20373;-63
2023/06/06 02:42:42;;;;;;;;;;;19.00;99.90;;;;;;5094002;28;19981;-62
2023/06/06 02:45:08;;;;;;;;;;;19.10;99.90;;;;;;5094311;28;19981;-61
2023/06/06 02:47:34;;;;;;;;;;;19.00;99.90;;;;;;5094239;28;19981;-62
2023/06/06 02:50:00;;;;;;;;;;;19.10;99.90;;;;;;5094062;28;19981;-64
2023/06/06 02:52:26;;;;;;;;;;;19.20;99.90;;;;;;5094378;28;19985;-62
2023/06/06 02:54:51;;;;;;;;;;;19.30;99.90;;;;;;5094025;28;20017;-62
2023/06/06 02:57:17;;;;;;;;;;;19.30;99.90;;;;;;5094019;28;20103;-61
2023/06/06 02:59:43;;;;;;;;;;;19.30;99.90;;;;;;5093715;28;19997;-63
2023/06/06 03:02:10;;;;;;;;;;;19.30;99.90;;;;;;5093742;28;20028;-62
2023/06/06 03:04:35;;;;;;;;;;;19.30;99.90;;;;;;5093989;28;20019;-62
2023/06/06 03:07:01;;;;;;;;;;;19.40;99.90;;;;;;5093705;28;20463;-62
2023/06/06 03:09:29;;;;;;;;;;;19.40;99.90;;;;;;5093352;28;20016;-62
2023/06/06 03:11:54;;;;;;;;;;;19.50;99.90;;;;;;5093736;28;20034;-61
2023/06/06 03:14:20;;;;;;;;;;;19.50;99.90;;;;;;5093696;28;19981;-63
2023/06/06 03:16:51;;;;;;;;;;;19.50;99.90;;;;;;5093827;28;20012;-63
2023/06/06 03:19:16;;;;;;;;;;;19.50;99.90;;;;;;5093832;28;19981;-61
2023/06/06 03:21:42;;;;;;;;;;;19.50;99.90;;;;;;5093730;28;19988;-61
2023/06/06 03:24:08;;;;;;;;;;;19.60;99.90;;;;;;5093719;28;20458;-61
2023/06/06 03:26:34;;;;;;;;;;;19.50;99.90;;;;;;5093715;28;19985;-61
2023/06/06 03:29:00;;;;;;;;;;;19.50;99.90;;;;;;5093654;28;19981;-60
2023/06/06 03:31:29;;;;;;;;;;;19.50;99.90;;;;;;5093626;28;20385;-64
2023/06/06 03:33:55;;;;;;;;;;;19.50;99.90;;;;;;5093698;28;20025;-63
2023/06/06 03:36:20;;;;;;;;;;;19.60;99.90;;;;;;5093555;28;20020;-65
2023/06/06 03:38:46;;;;;;;;;;;19.60;99.90;;;;;;5093671;28;19982;-64
2023/06/06 03:41:11;;;;;;;;;;;19.60;99.90;;;;;;5093393;28;20415;-60
2023/06/06 03:43:37;;;;;;;;;;;19.60;99.90;;;;;;5093463;28;19985;-64
2023/06/06 03:46:03;;;;;;;;;;;19.60;99.90;;;;;;5093778;28;19985;-61
2023/06/06 03:48:29;;;;;;;;;;;19.50;99.90;;;;;;5093565;28;20413;-61
2023/06/06 03:50:54;;;;;;;;;;;19.50;99.90;;;;;;5093543;28;20396;-63
2023/06/06 03:53:20;;;;;;;;;;;19.50;99.90;;;;;;5093428;28;19981;-64
2023/06/06 03:55:46;;;;;;;;;;;19.50;99.90;;;;;;5093134;28;20446;-62
2023/06/06 03:58:15;;;;;;;;;;;19.50;99.90;;;;;;5093427;28;20005;-63
2023/06/06 04:00:42;;;;;;;;;;;19.50;99.90;;;;;;5093074;28;20471;-61
2023/06/06 04:03:08;;;;;;;;;;;19.50;99.90;;;;;;5093370;28;20005;-61
2023/06/06 04:05:34;;;;;;;;;;;19.50;99.90;;;;;;5093653;28;20424;-63
2023/06/06 04:08:00;;;;;;;;;;;19.60;99.90;;;;;;5093517;28;19985;-61
2023/06/06 04:10:26;;;;;;;;;;;19.50;99.90;;;;;;5093389;28;20071;-64
2023/06/06 04:12:51;;;;;;;;;;;19.60;99.90;;;;;;5093552;28;20038;-61
2023/06/06 04:15:17;;;;;;;;;;;19.60;99.90;;;;;;5093168;28;19981;-62
2023/06/06 04:17:42;;;;;;;;;;;19.60;99.90;;;;;;5093098;28;20474;-64
2023/06/06 04:20:08;;;;;;;;;;;19.60;99.90;;;;;;5095697;28;20027;-64
2023/06/06 04:22:34;;;;;;;;;;;19.60;99.90;;;;;;5096884;28;19981;-61
2023/06/06 04:25:00;;;;;;;;;;;19.60;99.90;;;;;;5096660;28;20332;-60
2023/06/06 04:27:26;;;;;;;;;;;19.70;99.90;;;;;;5096894;28;20031;-64
2023/06/06 04:29:52;;;;;;;;;;;19.60;99.90;;;;;;5097070;28;19981;-61
2023/06/06 04:32:21;;;;;;;;;;;19.60;99.90;;;;;;5096667;28;20026;-62
2023/06/06 04:34:47;;;;;;;;;;;19.60;99.90;;;;;;5096675;28;20350;-64
2023/06/06 04:37:14;;;;;;;;;;;19.60;99.90;;;;;;5096525;28;20005;-63
2023/06/06 04:39:40;;;;;;;;;;;19.50;99.90;;;;;;5096223;28;20029;-61
2023/06/06 04:42:06;;;;;;;;;;;19.50;99.90;;;;;;5096453;28;20060;-61
2023/06/06 04:44:32;;;;;;;;;;;19.60;99.90;;;;;;5097052;28;19985;-64
2023/06/06 04:47:01;;;;;;;;;;;19.60;99.90;;;;;;5096342;28;19985;-63
2023/06/06 04:49:27;;;;;;;;;;;19.60;99.90;;;;;;5096382;28;19985;-61
2023/06/06 04:51:53;;;;;;;;;;;19.70;99.90;;;;;;5096399;28;19988;-61
2023/06/06 04:54:18;;;;;;;;;;;19.70;99.90;;;;;;5096062;28;20032;-61
2023/06/06 04:56:45;;;;;;;;;;;19.70;99.90;;;;;;5095985;28;20063;-64
2023/06/06 04:59:10;;;;;;;;;;;19.70;99.90;;;;;;5096252;28;19985;-63
2023/06/06 05:01:36;;;;;;;;;;;19.80;99.90;;;;;;5095662;28;20490;-63
2023/06/06 05:04:02;;;;;;;;;;;19.70;99.90;;;;;;5096086;28;19988;-64
2023/06/06 05:06:31;;;;;;;;;;;19.70;99.90;;;;;;5094767;28;20451;-64
2023/06/06 05:09:03;;;;;;;;;;;19.60;99.90;;;;;;5095503;28;20431;-63
2023/06/06 05:11:29;;;;;;;;;;;19.70;99.90;;;;;;5095827;28;19981;-60
2023/06/06 05:13:55;;;;;;;;;;;19.70;99.90;;;;;;5095817;28;19989;-61
2023/06/06 05:16:21;;;;;;;;;;;19.70;99.90;;;;;;5094563;28;19981;-64
2023/06/06 05:18:46;;;;;;;;;;;19.60;99.90;;;;;;5096099;28;19993;-61
2023/06/06 05:21:12;;;;;;;;;;;19.60;99.90;;;;;;5095844;28;20355;-61
2023/06/06 05:23:38;;;;;;;;;;;19.60;99.90;;;;;;5095681;28;19985;-63
2023/06/06 05:26:03;;;;;;;;;;;19.70;99.90;;;;;;5095821;28;19987;-61
2023/06/06 05:28:29;;;;;;;;;;;19.80;99.90;;;;;;5095545;28;19981;-61
2023/06/06 05:30:56;;;;;;;;;;;19.90;99.90;;;;;;5094766;28;20358;-64
2023/06/06 05:33:22;;;;;;;;;;;20.00;99.90;;;;;;5094368;28;19992;-61
2023/06/06 05:35:47;;;;;;;;;;;20.00;99.90;;;;;;5094129;28;19988;-63
2023/06/06 05:38:14;;;;;;;;;;;20.10;99.90;;;;;;5093737;28;20054;-62
2023/06/06 05:40:39;;;;;;;;;;;20.20;99.90;;;;;;5095286;28;19981;-62
2023/06/06 05:43:05;;;;;;;;;;;20.30;99.90;;;;;;5095263;28;20343;-64
2023/06/06 05:45:31;;;;;;;;;;;20.30;99.90;;;;;;5094565;28;19982;-62
2023/06/06 05:47:56;;;;;;;;;;;20.30;99.90;;;;;;5094878;28;20024;-62
2023/06/06 05:50:22;;;;;;;;;;;20.20;99.90;;;;;;5095167;28;19981;-63
2023/06/06 05:52:47;;;;;;;;;;;20.20;99.90;;;;;;5095191;28;20019;-65
2023/06/06 05:55:26;;;;;;;;;;;20.20;99.90;;;;;;5094979;28;20474;-63
2023/06/06 05:57:51;;;;;;;;;;;20.20;99.90;;;;;;5094623;28;20004;-65
2023/06/06 06:00:17;;;;;;;;;;;20.20;99.90;;;;;;5094689;28;20497;-63
2023/06/06 06:02:43;;;;;;;;;;;20.20;99.90;;;;;;5093990;28;19981;-64
2023/06/06 06:05:09;;;;;;;;;;;20.30;99.90;;;;;;5094567;28;19981;-62
2023/06/06 06:07:34;;;;;;;;;;;20.30;99.90;;;;;;5094828;28;19989;-62
2023/06/06 06:10:00;;;;;;;;;;;20.30;99.90;;;;;;5093490;28;20348;-63
2023/06/06 06:12:25;;;;;;;;;;;20.40;99.90;;;;;;5094655;28;20321;-65
2023/06/06 06:14:51;;;;;;;;;;;20.50;99.90;;;;;;5094751;28;19981;-64
2023/06/06 06:17:20;;;;;;;;;;;20.50;99.90;;;;;;5094434;28;20005;-62
2023/06/06 06:19:46;;;;;;;;;;;20.40;99.90;;;;;;5094655;28;19985;-62
2023/06/06 06:22:11;;;;;;;;;;;20.50;99.90;;;;;;5093146;28;19989;-64
2023/06/06 06:24:37;;;;;;;;;;;20.50;99.90;;;;;;5092499;28;20075;-63
2023/06/06 06:27:02;;;;;;;;;;;20.60;99.90;;;;;;5092813;28;20011;-64
2023/06/06 06:29:28;;;;;;;;;;;20.60;99.90;;;;;;5081435;28;19986;-61
2023/06/06 06:31:54;;;;;;;;;;;20.70;99.90;;;;;;5073196;28;20499;-64
2023/06/06 06:34:19;;;;;;;;;;;20.70;99.90;;;;;;5078552;28;20407;-62
2023/06/06 06:36:45;;;;;;;;;;;20.80;99.90;;;;;;5094253;28;20328;-61
2023/06/06 06:39:17;;;;;;;;;;;20.90;99.90;;;;;;5094215;28;19985;-65
2023/06/06 06:41:43;;;;;;;;;;;21.00;99.90;;;;;;5093989;28;20477;-63
2023/06/06 06:44:08;;;;;;;;;;;21.10;99.90;;;;;;5091245;28;19985;-64
2023/06/06 06:46:34;;;;;;;;;;;21.20;99.90;;;;;;5087716;28;19986;-63
2023/06/06 06:49:00;;;;;;;;;;;21.30;99.90;;;;;;5078588;28;19996;-62
2023/06/06 06:51:27;;;;;;;;;;;21.40;99.90;;;;;;5091960;28;19981;-61
2023/06/06 06:53:53;;;;;;;;;;;21.50;99.90;;;;;;5087311;28;20028;-62
2023/06/06 06:56:18;;;;;;;;;;;21.60;99.90;;;;;;5072691;28;20043;-63
2023/06/06 06:58:44;;;;;;;;;;;21.70;99.90;;;;;;5074607;28;19993;-63
2023/06/06 07:01:10;;;;;;;;;;;21.80;99.90;;;;;;5072618;28;20017;-64
2023/06/06 07:03:36;;;;;;;;;;;22.00;99.90;;;;;;5072608;28;20446;-64
2023/06/06 07:06:05;;;;;;;;;;;22.00;99.90;;;;;;5087815;28;19989;-64
2023/06/06 07:08:30;;;;;;;;;;;22.10;99.90;;;;;;5071414;28;20436;-63
2023/06/06 07:10:56;;;;;;;;;;;22.20;99.90;;;;;;5070368;28;19988;-63
2023/06/06 07:13:21;;;;;;;;;;;22.30;99.90;;;;;;5076606;28;20089;-64
2023/06/06 07:15:47;;;;;;;;;;;22.40;99.90;;;;;;5076333;28;20682;-63
2023/06/06 07:18:12;;;;;;;;;;;22.50;99.90;;;;;;5071502;28;20478;-64
2023/06/06 07:20:38;;;;;;;;;;;22.50;99.90;;;;;;5071785;28;19981;-64
2023/06/06 07:23:04;;;;;;;;;;;22.60;99.90;;;;;;5072151;28;20084;-63
2023/06/06 07:25:29;;;;;;;;;;;22.70;99.90;;;;;;5072455;28;19982;-63
2023/06/06 07:27:55;;;;;;;;;;;22.80;99.90;;;;;;5072801;28;19994;-63
2023/06/06 07:30:20;;;;;;;;;;;22.90;99.90;;;;;;5073440;28;19989;-64
2023/06/06 07:32:49;;;;;;;;;;;23.00;99.90;;;;;;5073176;28;20003;-64
2023/06/06 07:35:15;;;;;;;;;;;23.10;99.90;;;;;;5074949;28;20365;-64
2023/06/06 07:37:41;;;;;;;;;;;23.20;99.90;;;;;;5078112;28;20012;-66
2023/06/06 07:40:11;;;;;;;;;;;23.30;99.90;;;;;;5072651;28;19989;-62
2023/06/06 07:42:37;;;;;;;;;;;23.50;99.90;;;;;;5089525;28;20459;-64
2023/06/06 07:45:03;;;;;;;;;;;23.70;99.90;;;;;;5092318;28;20114;-65
2023/06/06 07:47:29;;;;;;;;;;;24.00;99.90;;;;;;5091295;28;19986;-63
2023/06/06 07:49:55;;;;;;;;;;;24.10;99.90;;;;;;5094316;28;19996;-65
2023/06/06 07:52:20;;;;;;;;;;;24.10;99.90;;;;;;5107133;28;19985;-68
2023/06/06 07:54:46;;;;;;;;;;;24.10;99.90;;;;;;5095852;28;20072;-64
2023/06/06 07:57:16;;;;;;;;;;;24.10;99.90;;;;;;5096930;28;20012;-65
2023/06/06 07:59:44;;;;;;;;;;;24.10;99.90;;;;;;5096840;28;20004;-67
2023/06/06 08:02:10;;;;;;;;;;;24.00;99.90;;;;;;5098643;28;20021;-67
2023/06/06 08:04:36;;;;;;;;;;;23.90;99.90;;;;;;5085798;28;19993;-64
2023/06/06 08:07:04;;;;;;;;;;;23.90;99.90;;;;;;5089663;28;19984;-67
2023/06/06 08:09:30;;;;;;;;;;;24.00;99.90;;;;;;5083968;28;20459;-64
2023/06/06 08:11:56;;;;;;;;;;;23.90;99.90;;;;;;5091072;28;20000;-64
2023/06/06 08:14:22;;;;;;;;;;;23.90;99.90;;;;;;5090321;28;19985;-64
2023/06/06 08:16:47;;;;;;;;;;;24.10;99.90;;;;;;5088393;28;20012;-69
2023/06/06 08:19:13;;;;;;;;;;;24.10;99.90;;;;;;5075365;28;20356;-65
2023/06/06 08:21:39;;;;;;;;;;;24.10;99.90;;;;;;5077814;28;19985;-66
2023/06/06 08:24:05;;;;;;;;;;;24.10;99.90;;;;;;5086402;28;19993;-66
2023/06/06 08:26:34;;;;;;;;;;;24.10;99.90;;;;;;5096385;28;19981;-65
2023/06/06 08:28:59;;;;;;;;;;;24.20;99.90;;;;;;5086485;28;19989;-65
2023/06/06 08:31:29;;;;;;;;;;;24.40;99.90;;;;;;5098285;28;19993;-63
2023/06/06 08:33:55;;;;;;;;;;;24.40;99.90;;;;;;5086274;28;20076;-61
2023/06/06 08:36:21;;;;;;;;;;;24.50;99.90;;;;;;5086832;28;20073;-63
2023/06/06 08:38:48;;;;;;;;;;;24.60;99.90;;;;;;5081208;28;20240;-65
2023/06/06 08:41:14;;;;;;;;;;;24.60;99.30;;;;;;5092298;28;20390;-67
2023/06/06 08:43:39;;;;;;;;;;;24.60;99.70;;;;;;5107263;28;20130;-65
2023/06/06 08:46:05;;;;;;;;;;;24.60;99.90;;;;;;5092776;28;20083;-66
2023/06/06 08:48:33;;;;;;;;;;;24.60;99.50;;;;;;5097939;28;20098;-65
2023/06/06 08:51:03;;;;;;;;;;;24.70;99.60;;;;;;5081963;28;20122;-66
2023/06/06 08:53:33;;;;;;;;;;;24.60;99.00;;;;;;5076289;28;19989;-63
2023/06/06 08:56:07;;;;;;;;;;;24.70;99.20;;;;;;5086194;28;20001;-63
2023/06/06 08:58:44;;;;;;;;;;;24.70;98.90;;;;;;5084745;28;20015;-60
2023/06/06 09:01:13;;;;;;;;;;;24.70;99.10;;;;;;5091654;28;20485;-60
2023/06/06 09:03:43;;;;;;;;;;;24.70;99.50;;;;;;5091934;28;20440;-63
2023/06/06 09:06:10;;;;;;;;;;;24.70;99.30;;;;;;5092731;28;19994;-63
2023/06/06 09:08:35;;;;;;;;;;;24.80;98.50;;;;;;5085296;28;19985;-60
2023/06/06 09:11:01;;;;;;;;;;;24.90;98.80;;;;;;5088270;28;19989;-61
2023/06/06 09:13:26;;;;;;;;;;;24.90;98.60;;;;;;5088911;28;19985;-60
2023/06/06 09:15:53;;;;;;;;;;;24.90;98.40;;;;;;5080714;28;19989;-63
2023/06/06 09:18:19;;;;;;;;;;;25.00;98.70;;;;;;5098212;28;20535;-66
2023/06/06 09:20:51;;;;;;;;;;;25.10;99.30;;;;;;5098466;28;20439;-63
2023/06/06 09:23:17;;;;;;;;;;;25.10;98.80;;;;;;5095607;28;20489;-65
2023/06/06 09:25:47;;;;;;;;;;;25.10;99.40;;;;;;5100724;28;20081;-66
2023/06/06 09:28:15;;;;;;;;;;;25.10;98.70;;;;;;5103001;28;20155;-66
2023/06/06 09:30:43;;;;;;;;;;;25.10;99.20;;;;;;5100487;28;20458;-64
2023/06/06 09:33:10;;;;;;;;;;;25.20;98.20;;;;;;5089002;28;19993;-64
2023/06/06 09:35:42;;;;;;;;;;;25.40;98.10;;;;;;5080515;28;19986;-66
2023/06/06 09:38:14;;;;;;;;;;;25.50;97.90;;;;;;5079450;28;20010;-62
2023/06/06 09:40:44;;;;;;;;;;;25.50;98.40;;;;;;5074150;28;20490;-62
2023/06/06 09:43:10;;;;;;;;;;;25.70;98.10;;;;;;5094774;28;20407;-66
2023/06/06 09:45:46;;;;;;;;;;;25.90;97.60;;;;;;5095716;28;20069;-63
2023/06/06 09:48:12;;;;;;;;;;;26.10;97.10;;;;;;5091273;28;19981;-62
2023/06/06 09:50:41;;;;;;;;;;;26.20;96.40;;;;;;5095175;28;19996;-62
2023/06/06 09:53:11;;;;;;;;;;;26.70;96.20;;;;;;5098012;28;20076;-63
2023/06/06 09:55:37;;;;;;;;;;;27.20;94.80;;;;;;5101349;28;19989;-63
2023/06/06 09:58:02;;;;;;;;;;;27.60;96.00;;;;;;5097555;28;20016;-65
2023/06/06 10:00:29;;;;;;;;;;;28.20;95.40;;;;;;5100681;28;20111;-63
2023/06/06 10:02:55;;;;;;;;;;;28.60;93.90;;;;;;5099514;28;19984;-63
2023/06/06 10:05:20;;;;;;;;;;;28.60;93.30;;;;;;5095985;28;19985;-62
2023/06/06 10:07:46;;;;;;;;;;;28.60;93.10;;;;;;5103281;28;20431;-62
2023/06/06 10:10:13;;;;;;;;;;;28.30;92.10;;;;;;5105009;28;20511;-64
2023/06/06 10:12:39;;;;;;;;;;;28.00;91.50;;;;;;5108887;28;19992;-63
2023/06/06 10:15:05;;;;;;;;;;;27.90;92.80;;;;;;5094094;28;19993;-64
2023/06/06 10:17:34;;;;;;;;;;;27.90;92.10;;;;;;5092162;28;20005;-62
2023/06/06 10:20:05;;;;;;;;;;;27.90;91.40;;;;;;5072946;28;19993;-63
2023/06/06 10:22:32;;;;;;;;;;;27.90;92.50;;;;;;5073177;28;20114;-63
2023/06/06 10:24:58;;;;;;;;;;;27.90;92.80;;;;;;5072783;28;19989;-63
2023/06/06 10:27:26;;;;;;;;;;;27.70;91.70;;;;;;5078035;28;19985;-62
2023/06/06 10:29:52;;;;;;;;;;;27.50;92.20;;;;;;5080968;28;19982;-64
2023/06/06 10:32:23;;;;;;;;;;;27.70;92.00;;;;;;5081434;28;19996;-64
2023/06/06 10:34:56;;;;;;;;;;;27.60;91.20;;;;;;5077208;28;19986;-64
2023/06/06 10:37:22;;;;;;;;;;;27.70;92.40;;;;;;5068356;28;20767;-63
2023/06/06 10:39:58;;;;;;;;;;;28.50;93.60;;;;;;5068232;28;19990;-64
2023/06/06 10:42:33;;;;;;;;;;;29.50;92.30;;;;;;5072211;28;19980;-65
2023/06/06 10:44:59;;;;;;;;;;;30.10;89.40;;;;;;5072822;28;19981;-63
2023/06/06 10:47:28;;;;;;;;;;;30.70;88.60;;;;;;5070724;28;20420;-66
2023/06/06 10:50:17;;;;;;;;;;;30.60;82.60;;;;;;5070400;28;20021;-65
2023/06/06 10:53:06;;;;;;;;;;;30.00;80.80;;;;;;5068496;28;19993;-65
2023/06/06 10:55:32;;;;;;;;;;;29.80;85.40;;;;;;5070205;28;20644;-63
2023/06/06 10:58:13;;;;;;;;;;;29.90;84.30;;;;;;5070598;28;20009;-63
2023/06/06 11:00:40;;;;;;;;;;;29.70;82.20;;;;;;5069529;28;20017;-64
2023/06/06 11:03:07;;;;;;;;;;;29.40;82.70;;;;;;5071232;28;20007;-63
2023/06/06 11:05:32;;;;;;;;;;;29.50;79.30;;;;;;5071591;28;19985;-64
2023/06/06 11:08:00;;;;;;;;;;;29.70;79.10;;;;;;5071028;28;19988;-64
2023/06/06 11:10:26;;;;;;;;;;;29.80;78.10;;;;;;5071920;28;19985;-65
2023/06/06 11:12:53;;;;;;;;;;;29.30;72.20;;;;;;5073441;28;19985;-61
2023/06/06 11:15:31;;;;;;;;;;;29.00;71.10;;;;;;5073988;28;19985;-62
2023/06/06 11:18:03;;;;;;;;;;;28.80;69.00;;;;;;5091919;28;20362;-65
2023/06/06 11:20:37;;;;;;;;;;;28.40;72.50;;;;;;5080292;28;19992;-65
2023/06/06 11:23:03;;;;;;;;;;;28.30;71.40;;;;;;5083246;28;20024;-65
2023/06/06 11:25:30;;;;;;;;;;;28.40;73.80;;;;;;5092444;28;20451;-62
2023/06/06 11:27:56;;;;;;;;;;;28.40;75.60;;;;;;5084192;28;19993;-62
2023/06/06 11:30:23;;;;;;;;;;;28.40;72.50;;;;;;5089968;28;20660;-64
2023/06/06 11:32:49;;;;;;;;;;;28.50;73.80;;;;;;5083152;28;19986;-66
2023/06/06 11:35:18;;;;;;;;;;;28.60;70.70;;;;;;5082091;28;20110;-63
2023/06/06 11:37:44;;;;;;;;;;;28.70;71.60;;;;;;5077214;28;20009;-63
2023/06/06 11:40:10;;;;;;;;;;;28.80;71.90;;;;;;5103137;28;20042;-67
2023/06/06 11:42:35;;;;;;;;;;;28.80;73.00;;;;;;5097686;28;19993;-66
2023/06/06 11:45:02;;;;;;;;;;;28.70;72.40;;;;;;5091021;28;19985;-64
2023/06/06 11:47:33;;;;;;;;;;;28.30;70.70;;;;;;5080620;28;20447;-63
2023/06/06 11:49:59;;;;;;;;;;;28.50;71.10;;;;;;5080122;28;20409;-65
2023/06/06 11:52:24;;;;;;;;;;;28.90;68.30;;;;;;5080861;28;19993;-65
2023/06/06 11:55:04;;;;;;;;;;;28.90;68.80;;;;;;5083254;28;19992;-63
2023/06/06 11:57:34;;;;;;;;;;;29.10;69.80;;;;;;5084028;28;20008;-64
2023/06/06 12:00:07;;;;;;;;;;;28.90;66.70;;;;;;5101819;28;20005;-64
2023/06/06 12:02:33;;;;;;;;;;;28.80;68.50;;;;;;5107967;28;19981;-62
2023/06/06 12:04:59;;;;;;;;;;;28.70;68.90;;;;;;5088792;28;19997;-63
2023/06/06 12:07:24;;;;;;;;;;;28.70;73.10;;;;;;5100416;28;19993;-63
2023/06/06 12:09:53;;;;;;;;;;;28.70;67.60;;;;;;5108763;28;20028;-65
2023/06/06 12:12:19;;;;;;;;;;;28.60;69.10;;;;;;5107291;28;20454;-64
2023/06/06 12:14:54;;;;;;;;;;;28.50;68.80;;;;;;5103889;28;20031;-64
2023/06/06 12:17:23;;;;;;;;;;;28.20;67.60;;;;;;5108363;28;20012;-65
2023/06/06 12:19:52;;;;;;;;;;;28.20;69.70;;;;;;5114701;28;20030;-64
2023/06/06 12:22:38;;;;;;;;;;;28.30;70.80;;;;;;5112915;28;19988;-66
2023/06/06 12:25:04;;;;;;;;;;;28.50;71.50;;;;;;5105137;28;20045;-64
2023/06/06 12:27:36;;;;;;;;;;;28.60;70.90;;;;;;5103258;28;19981;-62
2023/06/06 12:30:04;;;;;;;;;;;28.60;70.20;;;;;;5100462;28;19991;-64
2023/06/06 12:32:30;;;;;;;;;;;28.80;71.80;;;;;;5091548;28;20451;-63
2023/06/06 12:35:05;;;;;;;;;;;29.20;70.70;;;;;;5103138;28;19995;-64
2023/06/06 12:37:40;;;;;;;;;;;29.80;67.80;;;;;;5103420;28;20061;-66
2023/06/06 12:40:15;;;;;;;;;;;30.20;70.00;;;;;;5102277;28;20494;-65
2023/06/06 12:42:41;;;;;;;;;;;30.60;69.00;;;;;;5104389;28;19981;-62
2023/06/06 12:45:08;;;;;;;;;;;31.00;70.80;;;;;;5105663;28;20388;-65
2023/06/06 12:47:33;;;;;;;;;;;31.30;66.00;;;;;;5111258;28;19984;-61
2023/06/06 12:50:01;;;;;;;;;;;31.30;63.40;;;;;;5113898;28;19985;-66
2023/06/06 12:52:27;;;;;;;;;;;30.90;61.90;;;;;;5114141;28;19988;-63
2023/06/06 12:54:52;;;;;;;;;;;30.90;62.80;;;;;;5114041;28;19981;-65
2023/06/06 12:57:18;;;;;;;;;;;30.80;60.00;;;;;;5113316;28;20360;-62
2023/06/06 12:59:44;;;;;;;;;;;30.70;63.70;;;;;;5113200;28;20456;-62
2023/06/06 13:02:10;;;;;;;;;;;30.80;66.10;;;;;;5112016;28;20016;-65
2023/06/06 13:04:37;;;;;;;;;;;31.00;63.10;;;;;;5113332;28;19981;-66
2023/06/06 13:07:07;;;;;;;;;;;30.90;62.90;;;;;;5112942;28;20334;-65
2023/06/06 13:09:33;;;;;;;;;;;31.00;62.80;;;;;;5114681;28;20389;-62
2023/06/06 13:11:59;;;;;;;;;;;31.10;63.60;;;;;;5114922;28;19980;-64
2023/06/06 13:14:26;;;;;;;;;;;31.40;59.80;;;;;;5115237;28;19989;-66
2023/06/06 13:16:51;;;;;;;;;;;31.70;59.40;;;;;;5115657;28;20008;-64
2023/06/06 13:19:17;;;;;;;;;;;31.80;59.40;;;;;;5116446;28;20046;-66
2023/06/06 13:21:44;;;;;;;;;;;31.90;58.80;;;;;;5115930;28;20053;-67
2023/06/06 13:24:10;;;;;;;;;;;32.10;58.40;;;;;;5116198;28;20030;-65
2023/06/06 13:26:35;;;;;;;;;;;32.20;56.70;;;;;;5116121;28;19989;-65
2023/06/06 13:29:01;;;;;;;;;;;31.80;56.20;;;;;;5115850;28;20079;-64
2023/06/06 13:31:27;;;;;;;;;;;31.70;56.50;;;;;;5115415;28;19985;-63
2023/06/06 13:33:52;;;;;;;;;;;32.00;60.70;;;;;;5116083;28;20010;-63
2023/06/06 13:36:18;;;;;;;;;;;32.20;58.80;;;;;;5115616;28;19985;-63
2023/06/06 13:38:45;;;;;;;;;;;32.50;60.00;;;;;;5116021;28;20009;-61
2023/06/06 13:41:11;;;;;;;;;;;32.70;59.20;;;;;;5115852;28;19988;-59
2023/06/06 13:43:37;;;;;;;;;;;32.80;58.70;;;;;;5115769;28;20442;-63
2023/06/06 13:46:02;;;;;;;;;;;33.00;60.20;;;;;;5115752;28;20030;-61
2023/06/06 13:48:28;;;;;;;;;;;32.80;56.00;;;;;;5115671;28;20024;-62
2023/06/06 13:50:54;;;;;;;;;;;32.10;55.50;;;;;;5115442;28;19984;-60
2023/06/06 13:53:21;;;;;;;;;;;32.00;57.60;;;;;;5115550;28;19981;-62
2023/06/06 13:55:47;;;;;;;;;;;32.10;54.40;;;;;;5115861;28;20007;-62
2023/06/06 13:58:18;;;;;;;;;;;32.10;56.40;;;;;;5115762;28;20016;-64
2023/06/06 14:00:44;;;;;;;;;;;31.90;57.00;;;;;;5115413;28;20089;-60
2023/06/06 14:03:10;;;;;;;;;;;31.90;58.70;;;;;;5115616;28;19992;-63
2023/06/06 14:05:36;;;;;;;;;;;32.00;60.10;;;;;;5115461;28;19985;-60
2023/06/06 14:08:02;;;;;;;;;;;32.20;59.10;;;;;;5115221;28;20454;-63
2023/06/06 14:10:27;;;;;;;;;;;32.30;58.50;;;;;;5115197;28;19985;-61
2023/06/06 14:12:53;;;;;;;;;;;31.90;56.80;;;;;;5115535;28;19985;-66
2023/06/06 14:15:19;;;;;;;;;;;31.40;56.90;;;;;;5115351;28;20008;-64